sensor_id;sensor_type;location;lat;lon;timestamp;pressure;altitude;pressure_sealevel;temperature;humidity
16793;BME280;8513;42.662;23.350;2022-10-16T00:01:16;95553.38;;;10.35;64.83
16793;BME280;8513;42.662;23.350;2022-10-16T00:03:43;95558.78;;;10.43;64.31
16793;BME280;8513;42.662;23.350;2022-10-16T00:06:17;95567.34;;;10.35;64.58
16793;BME280;8513;42.662;23.350;2022-10-16T00:08:43;95557.72;;;10.15;65.24
16793;BME280;8513;42.662;23.350;2022-10-16T00:11:12;95561.06;;;10.17;65.47
16793;BME280;8513;42.662;23.350;2022-10-16T00:13:39;95561.88;;;10.18;65.46
16793;BME280;8513;42.662;23.350;2022-10-16T00:16:05;95567.13;;;10.18;65.45
16793;BME280;8513;42.662;23.350;2022-10-16T00:18:31;95564.94;;;10.23;65.35
16793;BME280;8513;42.662;23.350;2022-10-16T00:21:23;95570.19;;;10.23;65.57
16793;BME280;8513;42.662;23.350;2022-10-16T00:23:54;95565.81;;;10.33;64.86
16793;BME280;8513;42.662;23.350;2022-10-16T00:26:20;95571.34;;;10.30;64.86
16793;BME280;8513;42.662;23.350;2022-10-16T00:28:47;95565.06;;;10.11;64.87
16793;BME280;8513;42.662;23.350;2022-10-16T00:31:13;95576.94;;;10.06;65.40
16793;BME280;8513;42.662;23.350;2022-10-16T00:33:39;95579.41;;;10.07;65.04
16793;BME280;8513;42.662;23.350;2022-10-16T00:36:06;95582.97;;;10.27;64.51
16793;BME280;8513;42.662;23.350;2022-10-16T00:38:32;95587.34;;;10.17;64.36
16793;BME280;8513;42.662;23.350;2022-10-16T00:40:58;95587.91;;;9.80;65.70
16793;BME280;8513;42.662;23.350;2022-10-16T00:43:41;95584.72;;;9.77;65.84
16793;BME280;8513;42.662;23.350;2022-10-16T00:46:40;95583.94;;;9.86;65.43
16793;BME280;8513;42.662;23.350;2022-10-16T00:49:14;95574.16;;;10.07;64.75
16793;BME280;8513;42.662;23.350;2022-10-16T00:51:46;95576.78;;;10.07;64.29
16793;BME280;8513;42.662;23.350;2022-10-16T00:56:47;95580.03;;;9.70;65.55
16793;BME280;8513;42.662;23.350;2022-10-16T00:59:19;95571.28;;;9.60;65.81
16793;BME280;8513;42.662;23.350;2022-10-16T01:01:46;95587.19;;;9.68;65.97
16793;BME280;8513;42.662;23.350;2022-10-16T01:04:11;95587.75;;;9.72;65.92
16793;BME280;8513;42.662;23.350;2022-10-16T01:06:43;95589.56;;;9.71;65.65
16793;BME280;8513;42.662;23.350;2022-10-16T01:11:57;95595.41;;;9.54;66.05
16793;BME280;8513;42.662;23.350;2022-10-16T01:17:11;95595.66;;;9.51;65.96
16793;BME280;8513;42.662;23.350;2022-10-16T01:23:06;95590.25;;;9.43;66.77
16793;BME280;8513;42.662;23.350;2022-10-16T01:28:57;95573.59;;;9.33;66.77
16793;BME280;8513;42.662;23.350;2022-10-16T01:31:29;95575.03;;;9.37;66.46
16793;BME280;8513;42.662;23.350;2022-10-16T01:34:03;95572.78;;;9.32;65.91
16793;BME280;8513;42.662;23.350;2022-10-16T01:36:55;95578.03;;;9.32;65.85
16793;BME280;8513;42.662;23.350;2022-10-16T01:39:23;95575.16;;;9.35;65.56
16793;BME280;8513;42.662;23.350;2022-10-16T01:42:16;95574.06;;;9.38;65.51
16793;BME280;8513;42.662;23.350;2022-10-16T01:44:45;95574.06;;;9.38;65.43
16793;BME280;8513;42.662;23.350;2022-10-16T01:47:13;95578.94;;;9.21;65.86
16793;BME280;8513;42.662;23.350;2022-10-16T01:49:40;95583.53;;;9.29;65.64
16793;BME280;8513;42.662;23.350;2022-10-16T01:52:10;95585.59;;;9.25;65.86
16793;BME280;8513;42.662;23.350;2022-10-16T01:54:39;95582.09;;;9.15;66.07
16793;BME280;8513;42.662;23.350;2022-10-16T01:57:07;95592.41;;;9.07;66.82
16793;BME280;8513;42.662;23.350;2022-10-16T01:59:38;95588.69;;;9.10;66.85
16793;BME280;8513;42.662;23.350;2022-10-16T02:02:08;95587.53;;;9.23;66.25
16793;BME280;8513;42.662;23.350;2022-10-16T02:04:39;95586.88;;;9.10;66.17
16793;BME280;8513;42.662;23.350;2022-10-16T02:07:05;95592.41;;;9.07;66.77
16793;BME280;8513;42.662;23.350;2022-10-16T02:09:35;95589.59;;;8.99;67.07
16793;BME280;8513;42.662;23.350;2022-10-16T02:12:05;95594.88;;;9.09;67.02
16793;BME280;8513;42.662;23.350;2022-10-16T02:14:32;95603.72;;;9.08;67.18
16793;BME280;8513;42.662;23.350;2022-10-16T02:16:57;95594.66;;;9.12;66.99
16793;BME280;8513;42.662;23.350;2022-10-16T02:19:23;95597.75;;;9.05;67.07
16793;BME280;8513;42.662;23.350;2022-10-16T02:21:51;95596.69;;;9.08;67.22
16793;BME280;8513;42.662;23.350;2022-10-16T02:26:52;95614.28;;;9.17;67.23
16793;BME280;8513;42.662;23.350;2022-10-16T02:29:25;95618.00;;;8.61;68.69
16793;BME280;8513;42.662;23.350;2022-10-16T02:31:55;95615.28;;;8.52;69.48
16793;BME280;8513;42.662;23.350;2022-10-16T02:34:22;95612.47;;;8.76;68.94
16793;BME280;8513;42.662;23.350;2022-10-16T02:36:50;95610.22;;;8.92;67.58
16793;BME280;8513;42.662;23.350;2022-10-16T02:39:16;95609.22;;;8.83;67.24
16793;BME280;8513;42.662;23.350;2022-10-16T02:41:42;95612.81;;;9.03;66.04
16793;BME280;8513;42.662;23.350;2022-10-16T02:44:08;95616.75;;;8.77;66.45
16793;BME280;8513;42.662;23.350;2022-10-16T02:46:33;95617.34;;;8.80;66.55
16793;BME280;8513;42.662;23.350;2022-10-16T02:48:58;95619.81;;;8.50;67.41
16793;BME280;8513;42.662;23.350;2022-10-16T02:51:24;95622.91;;;8.55;68.26
16793;BME280;8513;42.662;23.350;2022-10-16T02:53:49;95617.41;;;8.58;67.75
16793;BME280;8513;42.662;23.350;2022-10-16T02:56:15;95635.28;;;8.64;68.03
16793;BME280;8513;42.662;23.350;2022-10-16T02:58:40;95625.91;;;8.82;67.49
16793;BME280;8513;42.662;23.350;2022-10-16T03:01:06;95631.72;;;8.86;67.23
16793;BME280;8513;42.662;23.350;2022-10-16T03:03:31;95631.94;;;8.62;68.02
16793;BME280;8513;42.662;23.350;2022-10-16T03:05:56;95637.06;;;8.64;67.93
16793;BME280;8513;42.662;23.350;2022-10-16T03:08:22;95639.56;;;8.65;67.72
16793;BME280;8513;42.662;23.350;2022-10-16T03:10:50;95634.84;;;8.48;68.29
16793;BME280;8513;42.662;23.350;2022-10-16T03:13:16;95643.19;;;8.53;68.11
16793;BME280;8513;42.662;23.350;2022-10-16T03:15:41;95643.91;;;8.44;67.94
16793;BME280;8513;42.662;23.350;2022-10-16T03:18:07;95647.25;;;8.46;68.00
16793;BME280;8513;42.662;23.350;2022-10-16T03:20:32;95641.75;;;8.49;67.80
16793;BME280;8513;42.662;23.350;2022-10-16T03:22:58;95641.53;;;8.29;68.30
16793;BME280;8513;42.662;23.350;2022-10-16T03:25:23;95650.22;;;8.30;68.20
16793;BME280;8513;42.662;23.350;2022-10-16T03:27:49;95645.59;;;8.22;68.63
16793;BME280;8513;42.662;23.350;2022-10-16T03:30:14;95650.94;;;8.32;68.46
16793;BME280;8513;42.662;23.350;2022-10-16T03:32:40;95650.03;;;8.10;69.40
16793;BME280;8513;42.662;23.350;2022-10-16T03:35:06;95649.41;;;8.07;69.39
16793;BME280;8513;42.662;23.350;2022-10-16T03:37:32;95652.28;;;8.04;69.73
16793;BME280;8513;42.662;23.350;2022-10-16T03:39:57;95645.38;;;8.14;69.30
16793;BME280;8513;42.662;23.350;2022-10-16T03:42:23;95646.44;;;8.11;69.52
16793;BME280;8513;42.662;23.350;2022-10-16T03:44:49;95655.34;;;8.20;69.24
16793;BME280;8513;42.662;23.350;2022-10-16T03:47:15;95648.34;;;8.21;69.27
16793;BME280;8513;42.662;23.350;2022-10-16T03:49:40;95645.25;;;8.15;69.04
16793;BME280;8513;42.662;23.350;2022-10-16T03:52:05;95644.63;;;8.23;68.83
16793;BME280;8513;42.662;23.350;2022-10-16T03:54:31;95654.50;;;8.31;68.63
16793;BME280;8513;42.662;23.350;2022-10-16T03:56:56;95635.59;;;8.16;68.87
16793;BME280;8513;42.662;23.350;2022-10-16T03:59:22;95636.44;;;8.16;68.95
16793;BME280;8513;42.662;23.350;2022-10-16T04:01:47;95644.78;;;7.99;69.09
16793;BME280;8513;42.662;23.350;2022-10-16T04:04:13;95636.84;;;7.89;69.43
16793;BME280;8513;42.662;23.350;2022-10-16T04:06:38;95629.22;;;7.86;69.77
16793;BME280;8513;42.662;23.350;2022-10-16T04:09:04;95638.38;;;7.92;70.08
16793;BME280;8513;42.662;23.350;2022-10-16T04:11:29;95638.84;;;7.97;69.85
16793;BME280;8513;42.662;23.350;2022-10-16T04:13:55;95644.78;;;7.88;70.09
16793;BME280;8513;42.662;23.350;2022-10-16T04:16:20;95646.94;;;8.05;69.35
16793;BME280;8513;42.662;23.350;2022-10-16T04:18:46;95638.25;;;8.05;68.90
16793;BME280;8513;42.662;23.350;2022-10-16T04:21:11;95647.78;;;7.83;70.05
16793;BME280;8513;42.662;23.350;2022-10-16T04:23:36;95642.41;;;7.85;69.55
16793;BME280;8513;42.662;23.350;2022-10-16T04:26:02;95650.28;;;7.85;69.84
16793;BME280;8513;42.662;23.350;2022-10-16T04:28:28;95656.34;;;7.85;69.86
16793;BME280;8513;42.662;23.350;2022-10-16T04:30:54;95661.00;;;7.82;69.79
16793;BME280;8513;42.662;23.350;2022-10-16T04:33:19;95652.16;;;7.83;69.52
16793;BME280;8513;42.662;23.350;2022-10-16T04:35:45;95669.09;;;7.90;69.19
16793;BME280;8513;42.662;23.350;2022-10-16T04:38:10;95659.53;;;7.78;69.51
16793;BME280;8513;42.662;23.350;2022-10-16T04:40:36;95662.78;;;7.81;69.28
16793;BME280;8513;42.662;23.350;2022-10-16T04:43:02;95672.28;;;7.82;69.16
16793;BME280;8513;42.662;23.350;2022-10-16T04:45:28;95656.47;;;7.72;69.48
16793;BME280;8513;42.662;23.350;2022-10-16T04:47:57;95663.72;;;7.69;69.80
16793;BME280;8513;42.662;23.350;2022-10-16T04:50:23;95668.13;;;7.68;69.54
16793;BME280;8513;42.662;23.350;2022-10-16T04:52:48;95665.03;;;7.63;69.57
16793;BME280;8513;42.662;23.350;2022-10-16T04:55:14;95669.28;;;7.64;69.76
16793;BME280;8513;42.662;23.350;2022-10-16T04:57:40;95668.38;;;7.77;69.19
16793;BME280;8513;42.662;23.350;2022-10-16T05:00:06;95672.88;;;7.74;69.26
16793;BME280;8513;42.662;23.350;2022-10-16T05:02:31;95679.31;;;7.70;69.58
16793;BME280;8513;42.662;23.350;2022-10-16T05:04:57;95688.38;;;7.89;69.40
16793;BME280;8513;42.662;23.350;2022-10-16T05:07:22;95691.47;;;7.94;68.80
16793;BME280;8513;42.662;23.350;2022-10-16T05:09:47;95684.78;;;8.01;68.35
16793;BME280;8513;42.662;23.350;2022-10-16T05:12:13;95691.69;;;7.91;68.67
16793;BME280;8513;42.662;23.350;2022-10-16T05:14:38;95690.75;;;8.03;68.54
16793;BME280;8513;42.662;23.350;2022-10-16T05:17:04;95690.63;;;7.93;68.61
16793;BME280;8513;42.662;23.350;2022-10-16T05:19:29;95699.19;;;7.95;68.60
16793;BME280;8513;42.662;23.350;2022-10-16T05:21:55;95701.22;;;8.03;68.47
16793;BME280;8513;42.662;23.350;2022-10-16T05:24:21;95709.81;;;7.94;68.83
16793;BME280;8513;42.662;23.350;2022-10-16T05:26:46;95700.88;;;7.97;69.21
16793;BME280;8513;42.662;23.350;2022-10-16T05:29:12;95709.31;;;8.11;69.00
16793;BME280;8513;42.662;23.350;2022-10-16T05:31:37;95705.72;;;8.12;68.97
16793;BME280;8513;42.662;23.350;2022-10-16T05:34:03;95707.03;;;8.07;69.28
16793;BME280;8513;42.662;23.350;2022-10-16T05:36:33;95703.00;;;8.14;69.49
16793;BME280;8513;42.662;23.350;2022-10-16T05:38:58;95703.38;;;8.21;69.20
16793;BME280;8513;42.662;23.350;2022-10-16T05:41:24;95715.38;;;8.23;69.12
16793;BME280;8513;42.662;23.350;2022-10-16T05:43:51;95712.75;;;8.23;69.41
16793;BME280;8513;42.662;23.350;2022-10-16T05:46:17;95705.75;;;8.24;70.02
16793;BME280;8513;42.662;23.350;2022-10-16T05:48:43;95709.91;;;8.26;69.83
16793;BME280;8513;42.662;23.350;2022-10-16T05:51:10;95717.06;;;8.24;70.20
16793;BME280;8513;42.662;23.350;2022-10-16T05:53:37;95721.34;;;8.48;69.51
16793;BME280;8513;42.662;23.350;2022-10-16T05:56:04;95719.13;;;8.75;68.06
16793;BME280;8513;42.662;23.350;2022-10-16T05:58:32;95718.91;;;8.67;67.75
16793;BME280;8513;42.662;23.350;2022-10-16T06:01:04;95732.34;;;8.74;67.35
16793;BME280;8513;42.662;23.350;2022-10-16T06:03:30;95742.00;;;8.84;67.08
16793;BME280;8513;42.662;23.350;2022-10-16T06:05:55;95734.09;;;8.96;66.24
16793;BME280;8513;42.662;23.350;2022-10-16T06:08:22;95746.53;;;8.82;65.94
16793;BME280;8513;42.662;23.350;2022-10-16T06:10:48;95751.25;;;9.00;66.42
16793;BME280;8513;42.662;23.350;2022-10-16T06:13:15;95755.25;;;9.15;65.59
16793;BME280;8513;42.662;23.350;2022-10-16T06:15:41;95752.00;;;8.91;65.63
16793;BME280;8513;42.662;23.350;2022-10-16T06:18:10;95754.22;;;9.07;65.85
16793;BME280;8513;42.662;23.350;2022-10-16T06:20:36;95746.94;;;9.10;65.70
16793;BME280;8513;42.662;23.350;2022-10-16T06:23:02;95761.22;;;9.17;65.58
16793;BME280;8513;42.662;23.350;2022-10-16T06:25:30;95757.13;;;9.24;65.60
16793;BME280;8513;42.662;23.350;2022-10-16T06:27:56;95760.09;;;9.31;65.29
16793;BME280;8513;42.662;23.350;2022-10-16T06:30:21;95752.72;;;9.46;64.51
16793;BME280;8513;42.662;23.350;2022-10-16T06:32:46;95757.53;;;9.62;64.06
16793;BME280;8513;42.662;23.350;2022-10-16T06:35:12;95745.50;;;9.59;63.72
16793;BME280;8513;42.662;23.350;2022-10-16T06:37:37;95759.69;;;9.68;63.89
16793;BME280;8513;42.662;23.350;2022-10-16T06:40:03;95760.56;;;9.78;63.62
16793;BME280;8513;42.662;23.350;2022-10-16T06:42:29;95759.09;;;9.85;63.27
16793;BME280;8513;42.662;23.350;2022-10-16T06:44:55;95762.59;;;9.96;62.49
16793;BME280;8513;42.662;23.350;2022-10-16T06:47:20;95766.06;;;9.96;63.10
16793;BME280;8513;42.662;23.350;2022-10-16T06:49:46;95774.00;;;10.06;62.84
16793;BME280;8513;42.662;23.350;2022-10-16T06:52:11;95768.28;;;10.22;62.63
16793;BME280;8513;42.662;23.350;2022-10-16T06:54:37;95780.44;;;10.23;62.08
16793;BME280;8513;42.662;23.350;2022-10-16T06:57:02;95786.75;;;10.31;62.11
16793;BME280;8513;42.662;23.350;2022-10-16T06:59:28;95784.81;;;10.33;62.12
16793;BME280;8513;42.662;23.350;2022-10-16T07:01:53;95798.59;;;10.47;62.01
16793;BME280;8513;42.662;23.350;2022-10-16T07:04:19;95787.94;;;10.48;62.09
16793;BME280;8513;42.662;23.350;2022-10-16T07:06:44;95790.41;;;10.50;62.63
16793;BME280;8513;42.662;23.350;2022-10-16T07:09:10;95780.50;;;10.53;61.96
16793;BME280;8513;42.662;23.350;2022-10-16T07:11:37;95796.81;;;10.57;62.33
16793;BME280;8513;42.662;23.350;2022-10-16T07:14:04;95788.63;;;10.50;61.62
16793;BME280;8513;42.662;23.350;2022-10-16T07:16:31;95789.22;;;10.64;61.63
16793;BME280;8513;42.662;23.350;2022-10-16T07:18:59;95797.28;;;10.72;61.51
16793;BME280;8513;42.662;23.350;2022-10-16T07:21:33;95795.53;;;10.82;62.52
16793;BME280;8513;42.662;23.350;2022-10-16T07:24:03;95796.78;;;10.78;62.44
16793;BME280;8513;42.662;23.350;2022-10-16T07:26:32;95805.88;;;10.64;62.43
16793;BME280;8513;42.662;23.350;2022-10-16T07:28:58;95800.38;;;10.87;62.05
16793;BME280;8513;42.662;23.350;2022-10-16T07:31:24;95802.75;;;10.90;61.54
16793;BME280;8513;42.662;23.350;2022-10-16T07:33:50;95800.69;;;10.93;60.84
16793;BME280;8513;42.662;23.350;2022-10-16T07:36:17;95802.22;;;11.06;60.63
16793;BME280;8513;42.662;23.350;2022-10-16T07:38:44;95808.31;;;11.06;60.35
16793;BME280;8513;42.662;23.350;2022-10-16T07:41:12;95801.28;;;11.16;60.17
16793;BME280;8513;42.662;23.350;2022-10-16T07:43:38;95807.09;;;11.20;60.11
16793;BME280;8513;42.662;23.350;2022-10-16T07:46:04;95810.16;;;11.25;59.84
16793;BME280;8513;42.662;23.350;2022-10-16T07:48:32;95808.63;;;11.13;60.51
16793;BME280;8513;42.662;23.350;2022-10-16T07:51:02;95801.84;;;11.30;59.91
16793;BME280;8513;42.662;23.350;2022-10-16T07:53:28;95814.63;;;11.34;60.54
16793;BME280;8513;42.662;23.350;2022-10-16T07:56:02;95815.19;;;11.47;60.17
16793;BME280;8513;42.662;23.350;2022-10-16T07:58:28;95811.72;;;11.57;59.72
16793;BME280;8513;42.662;23.350;2022-10-16T08:00:55;95814.91;;;11.70;58.92
16793;BME280;8513;42.662;23.350;2022-10-16T08:03:20;95809.22;;;11.84;58.61
16793;BME280;8513;42.662;23.350;2022-10-16T08:05:46;95809.63;;;11.80;58.54
16793;BME280;8513;42.662;23.350;2022-10-16T08:08:16;95805.19;;;11.80;58.86
16793;BME280;8513;42.662;23.350;2022-10-16T08:10:42;95810.34;;;11.91;58.75
16793;BME280;8513;42.662;23.350;2022-10-16T08:13:07;95805.59;;;11.85;58.77
16793;BME280;8513;42.662;23.350;2022-10-16T08:15:33;95816.59;;;11.90;58.75
16793;BME280;8513;42.662;23.350;2022-10-16T08:18:01;95806.59;;;12.04;58.03
16793;BME280;8513;42.662;23.350;2022-10-16T08:20:28;95807.94;;;12.18;58.06
16793;BME280;8513;42.662;23.350;2022-10-16T08:22:54;95802.69;;;12.18;57.94
16793;BME280;8513;42.662;23.350;2022-10-16T08:25:21;95803.50;;;12.18;58.12
16793;BME280;8513;42.662;23.350;2022-10-16T08:27:47;95806.66;;;12.41;57.50
16793;BME280;8513;42.662;23.350;2022-10-16T08:30:12;95804.41;;;12.46;57.16
16793;BME280;8513;42.662;23.350;2022-10-16T08:32:38;95802.59;;;12.47;56.88
16793;BME280;8513;42.662;23.350;2022-10-16T08:35:04;95802.13;;;12.61;56.23
16793;BME280;8513;42.662;23.350;2022-10-16T08:37:30;95799.06;;;12.66;56.06
16793;BME280;8513;42.662;23.350;2022-10-16T08:39:56;95796.13;;;12.69;55.52
16793;BME280;8513;42.662;23.350;2022-10-16T08:45:42;95807.03;;;13.11;54.36
16793;BME280;8513;42.662;23.350;2022-10-16T08:51:24;95810.97;;;13.25;53.74
16793;BME280;8513;42.662;23.350;2022-10-16T08:53:54;95801.88;;;13.37;53.07
16793;BME280;8513;42.662;23.350;2022-10-16T08:56:21;95801.72;;;13.39;52.17
16793;BME280;8513;42.662;23.350;2022-10-16T08:58:47;95804.69;;;13.54;51.92
16793;BME280;8513;42.662;23.350;2022-10-16T09:01:15;95817.22;;;13.70;50.43
16793;BME280;8513;42.662;23.350;2022-10-16T09:06:40;95813.78;;;13.95;49.04
16793;BME280;8513;42.662;23.350;2022-10-16T09:12:06;95805.59;;;13.98;48.11
16793;BME280;8513;42.662;23.350;2022-10-16T09:17:36;95809.22;;;14.23;46.60
16793;BME280;8513;42.662;23.350;2022-10-16T09:25:28;95799.47;;;14.50;45.07
16793;BME280;8513;42.662;23.350;2022-10-16T09:27:54;95805.31;;;14.53;46.06
16793;BME280;8513;42.662;23.350;2022-10-16T09:30:21;95806.13;;;14.54;46.84
16793;BME280;8513;42.662;23.350;2022-10-16T09:32:50;95802.91;;;14.68;45.31
16793;BME280;8513;42.662;23.350;2022-10-16T09:35:19;95799.72;;;14.99;44.48
16793;BME280;8513;42.662;23.350;2022-10-16T09:37:49;95794.84;;;15.20;44.32
16793;BME280;8513;42.662;23.350;2022-10-16T09:40:38;95795.56;;;15.47;43.72
16793;BME280;8513;42.662;23.350;2022-10-16T09:46:08;95795.94;;;15.69;41.57
16793;BME280;8513;42.662;23.350;2022-10-16T09:48:48;95793.78;;;15.56;41.33
16793;BME280;8513;42.662;23.350;2022-10-16T09:51:23;95786.31;;;15.68;42.48
16793;BME280;8513;42.662;23.350;2022-10-16T09:53:54;95785.88;;;15.80;42.35
16793;BME280;8513;42.662;23.350;2022-10-16T09:56:23;95790.34;;;15.96;41.31
16793;BME280;8513;42.662;23.350;2022-10-16T09:58:57;95786.84;;;15.87;40.24
16793;BME280;8513;42.662;23.350;2022-10-16T10:01:29;95783.56;;;15.77;40.69
16793;BME280;8513;42.662;23.350;2022-10-16T10:03:56;95785.19;;;15.86;41.06
16793;BME280;8513;42.662;23.350;2022-10-16T10:06:40;95770.63;;;16.07;41.29
16793;BME280;8513;42.662;23.350;2022-10-16T10:14:17;95761.94;;;16.38;38.85
16793;BME280;8513;42.662;23.350;2022-10-16T10:16:43;95763.72;;;16.53;38.92
16793;BME280;8513;42.662;23.350;2022-10-16T10:19:17;95766.81;;;16.73;38.38
16793;BME280;8513;42.662;23.350;2022-10-16T10:21:44;95768.16;;;16.78;37.88
16793;BME280;8513;42.662;23.350;2022-10-16T10:24:13;95763.50;;;16.71;37.99
16793;BME280;8513;42.662;23.350;2022-10-16T10:26:45;95764.47;;;16.87;39.43
16793;BME280;8513;42.662;23.350;2022-10-16T10:45:37;95756.00;;;17.23;36.06
16793;BME280;8513;42.662;23.350;2022-10-16T10:48:27;95744.91;;;17.42;34.74
16793;BME280;8513;42.662;23.350;2022-10-16T10:53:59;95735.66;;;17.84;35.13
16793;BME280;8513;42.662;23.350;2022-10-16T10:59:37;95736.91;;;18.11;33.65
16793;BME280;8513;42.662;23.350;2022-10-16T11:02:46;95731.59;;;18.11;31.87
16793;BME280;8513;42.662;23.350;2022-10-16T11:05:31;95725.94;;;18.29;33.35
16793;BME280;8513;42.662;23.350;2022-10-16T11:08:07;95722.91;;;18.62;32.92
16793;BME280;8513;42.662;23.350;2022-10-16T11:10:59;95722.81;;;18.70;30.98
16793;BME280;8513;42.662;23.350;2022-10-16T11:19:28;95715.97;;;19.12;30.04
16793;BME280;8513;42.662;23.350;2022-10-16T11:27:51;95706.31;;;19.69;29.35
16793;BME280;8513;42.662;23.350;2022-10-16T11:30:25;95702.94;;;19.81;28.33
16793;BME280;8513;42.662;23.350;2022-10-16T11:33:05;95710.19;;;19.30;29.65
16793;BME280;8513;42.662;23.350;2022-10-16T11:38:09;95709.09;;;19.39;30.52
16793;BME280;8513;42.662;23.350;2022-10-16T11:40:38;95710.63;;;19.70;28.53
16793;BME280;8513;42.662;23.350;2022-10-16T11:43:17;95712.03;;;20.15;27.69
16793;BME280;8513;42.662;23.350;2022-10-16T11:45:47;95712.84;;;20.44;27.07
16793;BME280;8513;42.662;23.350;2022-10-16T11:51:42;95708.84;;;20.96;27.55
16793;BME280;8513;42.662;23.350;2022-10-16T11:54:22;95706.59;;;21.94;26.21
16793;BME280;8513;42.662;23.350;2022-10-16T11:56:53;95713.59;;;32.65;14.81
16793;BME280;8513;42.662;23.350;2022-10-16T12:04:45;95717.41;;;41.79;7.00
16793;BME280;8513;42.662;23.350;2022-10-16T12:07:18;95718.13;;;42.72;6.91
16793;BME280;8513;42.662;23.350;2022-10-16T12:09:45;95713.19;;;43.97;6.25
16793;BME280;8513;42.662;23.350;2022-10-16T12:15:30;95699.53;;;43.92;6.10
16793;BME280;8513;42.662;23.350;2022-10-16T12:17:56;95706.75;;;41.39;7.47
16793;BME280;8513;42.662;23.350;2022-10-16T12:20:26;95710.44;;;45.57;5.43
16793;BME280;8513;42.662;23.350;2022-10-16T12:23:00;95709.69;;;45.44;4.92
16793;BME280;8513;42.662;23.350;2022-10-16T12:25:31;95713.97;;;47.29;3.67
16793;BME280;8513;42.662;23.350;2022-10-16T12:28:18;95704.09;;;46.47;3.96
16793;BME280;8513;42.662;23.350;2022-10-16T12:30:53;95714.88;;;46.91;4.00
16793;BME280;8513;42.662;23.350;2022-10-16T12:33:30;95715.38;;;47.65;3.46
16793;BME280;8513;42.662;23.350;2022-10-16T12:35:59;95718.69;;;47.48;3.90
16793;BME280;8513;42.662;23.350;2022-10-16T12:38:46;95711.63;;;44.80;5.21
16793;BME280;8513;42.662;23.350;2022-10-16T12:41:12;95705.34;;;46.49;4.24
16793;BME280;8513;42.662;23.350;2022-10-16T12:48:33;95715.28;;;46.31;4.23
16793;BME280;8513;42.662;23.350;2022-10-16T12:51:33;95709.84;;;46.77;3.98
16793;BME280;8513;42.662;23.350;2022-10-16T12:56:45;95711.16;;;45.54;4.30
16793;BME280;8513;42.662;23.350;2022-10-16T12:59:35;95712.97;;;43.65;5.69
16793;BME280;8513;42.662;23.350;2022-10-16T13:07:56;95711.19;;;44.10;5.23
16793;BME280;8513;42.662;23.350;2022-10-16T13:10:31;95714.03;;;40.96;6.68
16793;BME280;8513;42.662;23.350;2022-10-16T13:13:26;95723.53;;;43.02;5.38
16793;BME280;8513;42.662;23.350;2022-10-16T13:19:07;95713.56;;;43.58;5.67
16793;BME280;8513;42.662;23.350;2022-10-16T13:21:55;95718.06;;;44.28;5.02
16793;BME280;8513;42.662;23.350;2022-10-16T13:29:54;95725.06;;;47.25;4.13
16793;BME280;8513;42.662;23.350;2022-10-16T13:32:26;95712.09;;;45.77;4.34
16793;BME280;8513;42.662;23.350;2022-10-16T13:34:52;95722.69;;;45.72;4.22
16793;BME280;8513;42.662;23.350;2022-10-16T13:37:22;95729.84;;;48.01;3.13
16793;BME280;8513;42.662;23.350;2022-10-16T13:39:48;95725.41;;;47.01;3.87
16793;BME280;8513;42.662;23.350;2022-10-16T13:44:52;95726.16;;;46.59;3.86
16793;BME280;8513;42.662;23.350;2022-10-16T13:47:21;95723.19;;;45.58;4.43
16793;BME280;8513;42.662;23.350;2022-10-16T13:49:58;95724.22;;;45.38;4.77
16793;BME280;8513;42.662;23.350;2022-10-16T13:52:23;95725.34;;;42.98;5.91
16793;BME280;8513;42.662;23.350;2022-10-16T13:54:49;95715.41;;;40.55;7.33
16793;BME280;8513;42.662;23.350;2022-10-16T13:57:15;95729.75;;;43.11;6.10
16793;BME280;8513;42.662;23.350;2022-10-16T13:59:41;95720.34;;;43.86;5.32
16793;BME280;8513;42.662;23.350;2022-10-16T14:04:57;95729.31;;;44.19;5.36
16793;BME280;8513;42.662;23.350;2022-10-16T14:07:26;95734.41;;;43.19;6.24
16793;BME280;8513;42.662;23.350;2022-10-16T14:09:54;95727.50;;;40.89;7.44
16793;BME280;8513;42.662;23.350;2022-10-16T14:12:21;95729.84;;;42.57;6.42
16793;BME280;8513;42.662;23.350;2022-10-16T14:14:50;95738.50;;;42.88;6.29
16793;BME280;8513;42.662;23.350;2022-10-16T14:17:24;95733.84;;;43.50;5.60
16793;BME280;8513;42.662;23.350;2022-10-16T14:19:53;95742.50;;;42.79;6.10
16793;BME280;8513;42.662;23.350;2022-10-16T14:22:37;95737.94;;;41.99;6.52
16793;BME280;8513;42.662;23.350;2022-10-16T14:30:24;95741.38;;;41.28;6.46
16793;BME280;8513;42.662;23.350;2022-10-16T14:33:04;95739.63;;;41.06;6.68
16793;BME280;8513;42.662;23.350;2022-10-16T14:35:36;95741.44;;;38.69;8.11
16793;BME280;8513;42.662;23.350;2022-10-16T14:38:05;95735.44;;;36.83;8.90
16793;BME280;8513;42.662;23.350;2022-10-16T14:40:33;95735.63;;;33.74;11.26
16793;BME280;8513;42.662;23.350;2022-10-16T14:43:00;95735.50;;;31.08;13.58
16793;BME280;8513;42.662;23.350;2022-10-16T14:45:30;95746.91;;;31.58;13.39
16793;BME280;8513;42.662;23.350;2022-10-16T14:47:58;95739.00;;;30.61;14.29
16793;BME280;8513;42.662;23.350;2022-10-16T14:50:25;95750.22;;;28.95;15.56
16793;BME280;8513;42.662;23.350;2022-10-16T14:52:51;95740.03;;;27.44;17.03
16793;BME280;8513;42.662;23.350;2022-10-16T14:55:17;95747.53;;;26.90;17.92
16793;BME280;8513;42.662;23.350;2022-10-16T14:57:43;95747.19;;;25.85;19.21
16793;BME280;8513;42.662;23.350;2022-10-16T15:00:21;95754.81;;;25.40;19.38
16793;BME280;8513;42.662;23.350;2022-10-16T15:02:49;95761.47;;;25.19;19.70
16793;BME280;8513;42.662;23.350;2022-10-16T15:05:19;95754.81;;;24.34;20.63
16793;BME280;8513;42.662;23.350;2022-10-16T15:07:46;95755.59;;;23.46;22.14
16793;BME280;8513;42.662;23.350;2022-10-16T15:10:16;95763.25;;;22.71;23.29
16793;BME280;8513;42.662;23.350;2022-10-16T15:12:42;95760.31;;;22.93;22.69
16793;BME280;8513;42.662;23.350;2022-10-16T15:17:49;95762.44;;;22.57;23.88
16793;BME280;8513;42.662;23.350;2022-10-16T15:20:18;95766.56;;;22.40;23.78
16793;BME280;8513;42.662;23.350;2022-10-16T15:22:43;95766.97;;;22.10;24.50
16793;BME280;8513;42.662;23.350;2022-10-16T15:27:54;95778.19;;;21.52;25.65
16793;BME280;8513;42.662;23.350;2022-10-16T15:30:20;95780.09;;;21.17;26.38